createdAt,value
2022-08-09T00:00:06.309Z,57275.66
2022-08-09T00:02:34.359Z,57254.78
2022-08-09T00:06:12.158Z,57273.56
2022-08-09T00:07:49.124Z,57279.84
2022-08-09T00:10:18.020Z,57279.84
2022-08-09T00:12:52.310Z,57236.00
2022-08-09T00:15:26.838Z,57281.94
2022-08-09T00:18:11.372Z,57263.16
2022-08-09T00:20:41.433Z,57252.72
2022-08-09T00:23:55.578Z,57238.09
2022-08-09T00:26:04.861Z,57258.97
2022-08-09T00:28:34.725Z,57248.53
2022-08-09T00:31:46.737Z,57231.84
2022-08-09T00:33:52.085Z,57250.63
2022-08-09T00:36:19.780Z,57286.09
2022-08-09T00:38:50.839Z,57296.53
2022-08-09T00:44:10.586Z,57263.16
2022-08-09T00:44:27.261Z,57242.28
2022-08-09T00:47:05.676Z,57258.97
2022-08-09T00:49:36.993Z,57265.22
2022-08-09T00:52:17.422Z,57254.78
2022-08-09T00:54:45.745Z,57292.38
2022-08-09T00:57:13.702Z,57263.16
2022-08-09T00:59:46.220Z,57292.38
2022-08-09T01:02:21.280Z,57252.72
2022-08-09T01:05:02.621Z,57309.06
2022-08-09T01:08:00.572Z,57261.06
2022-08-09T01:10:39.040Z,57250.63
2022-08-09T01:13:31.089Z,57254.78
2022-08-09T01:16:11.234Z,57261.06
2022-08-09T01:18:47.655Z,57288.19
2022-08-09T01:21:45.049Z,57288.19
2022-08-09T01:24:24.190Z,57258.97
2022-08-09T01:26:56.997Z,57250.63
2022-08-09T01:29:54.913Z,57258.97
2022-08-09T01:32:30.379Z,57265.22
2022-08-09T01:35:44.538Z,57258.97
2022-08-09T01:38:16.594Z,57263.16
2022-08-09T01:41:04.878Z,57256.88
2022-08-09T01:43:50.126Z,57261.06
2022-08-09T01:46:28.155Z,57231.84
2022-08-09T01:49:10.335Z,57271.50
2022-08-09T01:51:53.422Z,57231.84
2022-08-09T01:54:32.608Z,57258.97
2022-08-09T01:57:04.946Z,57231.84
2022-08-09T01:59:50.804Z,57261.06
2022-08-09T02:02:22.164Z,57258.97
2022-08-09T02:04:51.001Z,57236.00
2022-08-09T02:08:38.849Z,57277.75
2022-08-09T02:10:13.640Z,57258.97
2022-08-09T02:12:43.003Z,57286.09
2022-08-09T02:15:16.677Z,57240.19
2022-08-09T02:18:00.776Z,57279.84
2022-08-09T02:20:35.487Z,57246.44
2022-08-09T02:23:16.900Z,57271.50
2022-08-09T02:25:52.909Z,57254.78
2022-08-09T02:28:34.411Z,57258.97
2022-08-09T02:31:12.703Z,57258.97
2022-08-09T02:34:06.291Z,57267.31
2022-08-09T02:36:39.134Z,57271.50
2022-08-09T02:39:19.910Z,57269.41
2022-08-09T02:42:17.285Z,57233.91
2022-08-09T02:44:50.642Z,57275.66
2022-08-09T02:47:20.004Z,57238.09
2022-08-09T02:50:02.747Z,57265.22
2022-08-09T02:52:46.345Z,57334.09
2022-08-09T02:55:20.841Z,57277.75
2022-08-09T02:58:00.719Z,57267.31
2022-08-09T03:00:58.036Z,57275.66
2022-08-09T03:04:13.326Z,57258.97
2022-08-09T03:06:15.091Z,57273.56
2022-08-09T03:08:46.348Z,57250.63
2022-08-09T03:12:04.932Z,57238.09
2022-08-09T03:14:07.199Z,57256.88
2022-08-09T03:16:38.466Z,57256.88
2022-08-09T03:19:14.577Z,57298.63
2022-08-09T03:21:58.154Z,57296.53
2022-08-09T03:24:42.474Z,57304.88
2022-08-09T03:27:13.647Z,57290.28
2022-08-09T03:29:57.753Z,57261.06
2022-08-09T03:32:31.065Z,57261.06
2022-08-09T03:34:59.215Z,57254.78
2022-08-09T03:37:55.547Z,57265.22
2022-08-09T03:40:13.505Z,57273.56
2022-08-09T03:42:45.508Z,57229.75
2022-08-09T03:45:13.633Z,57246.44
2022-08-09T03:47:46.400Z,57252.72
2022-08-09T03:50:18.822Z,57263.16
2022-08-09T03:53:01.623Z,57231.84
2022-08-09T03:55:30.236Z,57248.53
2022-08-09T03:58:09.969Z,57275.66
2022-08-09T04:00:45.138Z,57292.38
2022-08-09T04:03:19.868Z,57213.06
2022-08-09T04:05:58.926Z,57240.19
2022-08-09T04:08:29.089Z,57233.91
2022-08-09T04:10:56.467Z,57229.75
2022-08-09T04:14:37.646Z,57219.31
2022-08-09T04:16:20.471Z,57208.88
2022-08-09T04:18:50.940Z,57196.34
2022-08-09T04:21:18.224Z,57200.53
2022-08-09T04:23:53.781Z,57208.88
2022-08-09T04:26:23.425Z,57202.63
2022-08-09T04:28:50.565Z,57165.03
2022-08-09T04:31:17.210Z,57171.31
2022-08-09T04:33:52.497Z,57179.66
2022-08-09T04:36:25.860Z,57173.41
2022-08-09T04:38:53.833Z,57156.69
2022-08-09T04:41:23.557Z,57171.31
2022-08-09T04:44:05.349Z,57202.63
2022-08-09T04:46:37.641Z,57183.84
2022-08-09T04:49:22.308Z,57154.59
2022-08-09T04:52:09.636Z,57142.09
2022-08-09T04:54:37.011Z,57181.75
2022-08-09T04:57:04.134Z,57165.03
2022-08-09T04:59:31.500Z,57135.81
2022-08-09T05:01:58.459Z,57140.00
2022-08-09T05:04:31.025Z,57121.22
2022-08-09T05:06:58.445Z,57121.22
2022-08-09T05:09:25.153Z,57154.59
2022-08-09T05:12:08.863Z,57148.34
2022-08-09T05:14:35.532Z,57092.00
2022-08-09T05:17:02.679Z,57119.13
2022-08-09T05:19:31.759Z,57150.44
2022-08-09T05:22:28.257Z,57131.66
2022-08-09T05:25:00.981Z,57127.47
2022-08-09T05:27:31.015Z,57133.75
2022-08-09T05:29:59.035Z,57133.75
2022-08-09T05:32:26.424Z,57152.53
2022-08-09T05:34:56.894Z,57098.25
2022-08-09T05:37:23.959Z,57142.09
2022-08-09T05:39:52.391Z,57121.22
2022-08-09T05:42:21.208Z,57144.19
2022-08-09T05:44:53.449Z,57137.91
2022-08-09T05:47:25.483Z,57127.47
2022-08-09T05:50:23.168Z,57133.75
2022-08-09T05:52:43.548Z,57148.34
2022-08-09T05:55:20.416Z,57104.53
2022-08-09T05:57:50.903Z,57131.66
2022-08-09T06:00:23.303Z,57108.69
2022-08-09T06:02:53.966Z,57085.75
2022-08-09T06:05:49.690Z,57100.34
2022-08-09T06:08:09.198Z,57096.16
2022-08-09T06:10:38.040Z,57100.34
2022-08-09T06:13:18.214Z,57098.25
2022-08-09T06:15:46.868Z,57081.56
2022-08-09T06:18:15.742Z,57066.94
2022-08-09T06:20:43.637Z,57100.34
2022-08-09T06:23:21.212Z,57092.00
2022-08-09T06:25:49.243Z,57133.75
2022-08-09T06:28:16.156Z,57096.16
2022-08-09T06:30:43.451Z,57083.66
2022-08-09T06:33:30.614Z,57106.59
2022-08-09T06:35:58.473Z,57110.78
2022-08-09T06:38:31.873Z,57119.13
2022-08-09T06:41:04.432Z,57133.75
2022-08-09T06:43:34.333Z,57075.31
2022-08-09T06:46:08.062Z,57119.13
2022-08-09T06:48:37.490Z,57029.38
2022-08-09T06:51:10.941Z,57066.94
2022-08-09T06:53:39.088Z,57060.69
2022-08-09T06:56:09.320Z,57077.38
2022-08-09T07:00:47.167Z,57096.16
2022-08-09T07:01:24.229Z,57123.31
2022-08-09T07:04:04.026Z,57137.91
2022-08-09T07:06:31.151Z,57102.44
2022-08-09T07:08:58.160Z,57148.34
2022-08-09T07:11:25.581Z,57137.91
2022-08-09T07:14:05.604Z,57117.03
2022-08-09T07:16:39.239Z,57106.59
2022-08-09T07:19:15.477Z,57096.16
2022-08-09T07:21:56.034Z,57089.91
2022-08-09T07:24:31.398Z,57096.16
2022-08-09T07:27:01.095Z,57129.56
2022-08-09T07:29:30.793Z,57140.00
2022-08-09T07:32:05.928Z,57096.16
2022-08-09T07:34:32.594Z,57142.09
2022-08-09T07:37:02.748Z,57121.22
2022-08-09T07:39:40.870Z,57131.66
2022-08-09T07:42:08.729Z,57121.22
2022-08-09T07:44:52.540Z,57129.56
2022-08-09T07:47:20.894Z,57177.56
2022-08-09T07:50:05.250Z,57158.78
2022-08-09T07:52:33.079Z,57117.03
2022-08-09T07:55:08.832Z,57137.91
2022-08-09T07:57:36.541Z,57140.00
2022-08-09T08:00:08.781Z,57133.75
2022-08-09T08:02:36.093Z,57156.69
2022-08-09T08:05:17.675Z,57125.38
2022-08-09T08:08:59.781Z,57165.03
2022-08-09T08:10:34.359Z,57144.19
2022-08-09T08:13:01.706Z,57150.44
2022-08-09T08:15:37.467Z,57173.41
2022-08-09T08:18:04.505Z,57162.97
2022-08-09T08:20:32.382Z,57129.56
2022-08-09T08:23:06.666Z,57150.44
2022-08-09T08:25:46.663Z,57114.97
2022-08-09T08:28:18.341Z,57129.56
2022-08-09T08:30:52.621Z,57131.66
2022-08-09T08:33:24.104Z,57165.03
2022-08-09T08:35:59.053Z,57152.53
2022-08-09T08:38:27.968Z,57137.91
2022-08-09T08:40:56.158Z,57131.66
2022-08-09T08:43:24.081Z,57142.09
2022-08-09T08:46:31.547Z,57142.09
2022-08-09T08:48:51.897Z,57137.91
2022-08-09T08:51:22.484Z,57150.44
2022-08-09T08:54:04.225Z,57125.38
2022-08-09T08:56:35.996Z,57135.81
2022-08-09T08:59:19.260Z,57146.25
2022-08-09T09:01:53.278Z,57162.97
2022-08-09T09:04:31.187Z,57173.41
2022-08-09T09:07:08.365Z,57148.34
2022-08-09T09:09:57.910Z,57169.22
2022-08-09T09:12:44.485Z,57158.78
2022-08-09T09:15:12.197Z,57185.91
2022-08-09T09:17:55.086Z,57156.69
2022-08-09T09:20:21.916Z,57183.84
2022-08-09T09:22:57.600Z,57150.44
2022-08-09T09:26:05.097Z,57127.47
2022-08-09T09:28:21.343Z,57165.03
2022-08-09T09:31:17.585Z,57204.69
2022-08-09T09:34:15.305Z,57171.31
2022-08-09T09:36:52.852Z,57160.88
2022-08-09T09:39:42.887Z,57190.09
2022-08-09T09:42:24.835Z,57169.22
2022-08-09T09:45:04.283Z,57175.47
2022-08-09T09:47:32.470Z,57137.91
2022-08-09T09:50:14.485Z,57150.44
2022-08-09T09:52:53.909Z,57192.19
2022-08-09T09:55:28.779Z,57156.69
2022-08-09T09:58:19.297Z,57192.19
2022-08-09T10:00:58.408Z,57225.56
2022-08-09T10:03:43.683Z,57175.47
2022-08-09T10:06:12.832Z,57119.13
2022-08-09T10:08:43.140Z,57208.88
2022-08-09T10:11:59.139Z,57181.75
2022-08-09T10:14:32.936Z,57175.47
2022-08-09T10:17:39.428Z,57183.84
2022-08-09T10:19:59.323Z,57202.63
2022-08-09T10:22:35.347Z,57167.13
2022-08-09T10:25:11.619Z,57148.34
2022-08-09T10:27:55.803Z,57169.22
2022-08-09T10:34:04.713Z,57200.53
2022-08-09T10:36:02.314Z,57162.97
2022-08-09T10:38:54.601Z,57167.13
2022-08-09T10:41:18.775Z,57175.47
2022-08-09T10:43:58.747Z,57181.75
2022-08-09T10:46:55.640Z,57142.09
2022-08-09T10:49:50.133Z,57173.41
2022-08-09T10:52:42.614Z,57154.59
2022-08-09T10:55:24.724Z,57196.34
2022-08-09T10:57:55.353Z,57142.09
2022-08-09T11:00:28.867Z,57183.84
2022-08-09T11:03:13.435Z,57158.78
2022-08-09T11:06:15.635Z,57183.84
2022-08-09T11:08:47.962Z,57198.44
2022-08-09T11:11:19.216Z,57162.97
2022-08-09T11:13:50.174Z,57148.34
2022-08-09T11:16:41.046Z,57133.75
2022-08-09T11:19:10.625Z,57171.31
2022-08-09T11:22:10.173Z,57183.84
2022-08-09T11:24:57.971Z,57177.56
2022-08-09T11:28:05.588Z,57158.78
2022-08-09T11:30:37.733Z,57152.53
2022-08-09T11:33:20.580Z,57154.59
2022-08-09T11:36:00.360Z,57171.31
2022-08-09T11:38:33.110Z,57098.25
2022-08-09T11:41:13.860Z,57135.81
2022-08-09T11:43:48.865Z,57167.13
2022-08-09T11:46:26.523Z,57165.03
2022-08-09T11:49:00.835Z,57175.47
2022-08-09T11:53:02.498Z,57202.63
2022-08-09T11:55:39.907Z,57194.25
2022-08-09T11:58:16.381Z,57171.31
2022-08-09T12:01:15.638Z,57123.31
2022-08-09T12:04:01.694Z,57171.31
2022-08-09T12:06:32.859Z,57173.41
2022-08-09T12:09:19.573Z,57173.41
2022-08-09T12:12:03.216Z,57162.97
2022-08-09T12:14:36.946Z,57190.09
2022-08-09T12:17:28.279Z,57183.84
2022-08-09T12:20:00.906Z,57179.66
2022-08-09T12:22:29.203Z,57158.78
2022-08-09T12:25:14.962Z,57154.59
2022-08-09T12:29:09.802Z,57202.63
2022-08-09T12:30:35.590Z,57177.56
2022-08-09T12:33:07.351Z,57171.31
2022-08-09T12:35:40.739Z,57200.53
2022-08-09T12:38:37.897Z,57142.09
2022-08-09T12:41:05.485Z,57198.44
2022-08-09T12:44:05.981Z,57154.59
2022-08-09T12:46:24.627Z,57194.25
2022-08-09T12:48:54.024Z,57190.09
2022-08-09T12:51:52.602Z,57129.56
2022-08-09T12:54:09.754Z,57185.91
2022-08-09T12:56:51.080Z,57188.00
2022-08-09T12:59:22.047Z,57165.03
2022-08-09T13:01:58.611Z,57171.31
2022-08-09T13:04:37.613Z,57188.00
2022-08-09T13:07:19.449Z,57179.66
2022-08-09T13:09:55.915Z,57229.75
2022-08-09T13:12:27.980Z,57160.88
2022-08-09T13:15:07.391Z,57156.69
2022-08-09T13:18:03.745Z,57133.75
2022-08-09T13:22:33.166Z,57156.69
2022-08-09T13:24:16.867Z,57160.88
2022-08-09T13:26:42.247Z,57156.69
2022-08-09T13:29:13.898Z,57137.91
2022-08-09T13:32:15.902Z,57142.09
2022-08-09T13:34:46.748Z,57156.69
2022-08-09T13:37:24.748Z,57146.25
2022-08-09T13:41:46.794Z,57175.47
2022-08-09T13:42:50.529Z,57162.97
2022-08-09T13:45:18.001Z,57144.19
2022-08-09T13:47:49.520Z,57179.66
2022-08-09T13:50:30.957Z,57156.69
2022-08-09T13:52:58.624Z,57152.53
2022-08-09T13:55:29.001Z,57181.75
2022-08-09T13:57:58.453Z,57162.97
2022-08-09T14:00:28.511Z,57171.31
2022-08-09T14:03:16.835Z,57127.47
2022-08-09T14:05:59.123Z,57160.88
2022-08-09T14:08:30.515Z,57160.88
2022-08-09T14:10:59.517Z,57185.91
2022-08-09T14:14:23.195Z,57131.66
2022-08-09T14:16:20.237Z,57185.91
2022-08-09T14:18:58.075Z,57146.25
2022-08-09T14:21:29.146Z,57190.09
2022-08-09T14:23:57.272Z,57150.44
2022-08-09T14:26:30.537Z,57127.47
2022-08-09T14:29:02.636Z,57154.59
2022-08-09T14:31:50.294Z,57200.53
2022-08-09T14:34:17.317Z,57173.41
2022-08-09T14:36:45.075Z,57142.09
2022-08-09T14:39:12.413Z,57158.78
2022-08-09T14:41:41.671Z,57171.31
2022-08-09T14:44:11.018Z,57175.47
2022-08-09T14:46:58.197Z,57160.88
2022-08-09T14:49:26.336Z,57204.69
2022-08-09T14:51:58.820Z,57123.31
2022-08-09T14:54:28.043Z,57152.53
2022-08-09T14:56:58.694Z,57165.03
2022-08-09T14:59:28.426Z,57133.75
2022-08-09T15:01:56.136Z,57177.56
2022-08-09T15:04:24.627Z,57156.69
2022-08-09T15:06:52.209Z,57135.81
2022-08-09T15:10:03.777Z,57173.41
2022-08-09T15:12:08.162Z,57114.97
2022-08-09T15:14:38.590Z,57177.56
2022-08-09T15:17:09.344Z,57200.53
2022-08-09T15:19:37.059Z,57183.84
2022-08-09T15:22:29.883Z,57173.41
2022-08-09T15:24:56.650Z,57142.09
2022-08-09T15:27:23.384Z,57131.66
2022-08-09T15:30:59.388Z,57156.69
2022-08-09T15:32:41.249Z,57167.13
2022-08-09T15:35:18.574Z,57188.00
2022-08-09T15:38:11.365Z,57171.31
2022-08-09T15:40:43.756Z,57146.25
2022-08-09T15:43:13.467Z,57179.66
2022-08-09T15:46:07.703Z,57152.53
2022-08-09T15:48:30.444Z,57119.13
2022-08-09T15:50:58.436Z,57169.22
2022-08-09T15:54:03.884Z,57150.44
2022-08-09T15:56:21.402Z,57173.41
2022-08-09T15:58:56.739Z,57179.66
2022-08-09T16:01:23.572Z,57156.69
2022-08-09T16:03:51.073Z,57133.75
2022-08-09T16:06:29.541Z,57173.41
2022-08-09T16:09:05.197Z,57160.88
2022-08-09T16:11:33.085Z,57158.78
2022-08-09T16:14:03.273Z,57146.25
2022-08-09T16:16:34.615Z,57185.91
2022-08-09T16:19:04.974Z,57179.66
2022-08-09T16:21:34.851Z,57196.34
2022-08-09T16:24:04.554Z,57135.81
2022-08-09T16:26:35.145Z,57177.56
2022-08-09T16:29:12.030Z,57185.91
2022-08-09T16:32:19.793Z,57140.00
2022-08-09T16:34:28.815Z,57165.03
2022-08-09T16:36:57.543Z,57175.47
2022-08-09T16:39:26.017Z,57144.19
2022-08-09T16:42:03.511Z,57165.03
2022-08-09T16:44:32.677Z,57137.91
2022-08-09T16:47:03.875Z,57137.91
2022-08-09T16:50:32.601Z,57198.44
2022-08-09T16:52:17.662Z,57156.69
2022-08-09T16:54:45.882Z,57142.09
2022-08-09T16:57:12.544Z,57169.22
2022-08-09T16:59:43.910Z,57206.78
2022-08-09T17:02:17.959Z,57179.66
2022-08-09T17:04:50.370Z,57160.88
2022-08-09T17:08:46.593Z,57162.97
2022-08-09T17:10:08.806Z,57165.03
2022-08-09T17:12:35.649Z,57175.47
2022-08-09T17:15:31.188Z,57183.84
2022-08-09T17:17:51.103Z,57160.88
2022-08-09T17:20:32.362Z,57156.69
2022-08-09T17:23:04.082Z,57185.91
2022-08-09T17:25:32.190Z,57173.41
2022-08-09T17:28:05.088Z,57148.34
2022-08-09T17:30:31.959Z,57160.88
2022-08-09T17:33:05.585Z,57192.19
2022-08-09T17:35:48.924Z,57144.19
2022-08-09T17:38:29.204Z,57177.56
2022-08-09T17:41:02.167Z,57190.09
2022-08-09T17:43:33.741Z,57204.69
2022-08-09T17:46:06.226Z,57185.91
2022-08-09T17:48:38.728Z,57181.75
2022-08-09T17:51:17.865Z,57150.44
2022-08-09T17:53:52.323Z,57181.75
2022-08-09T17:56:28.474Z,57171.31
2022-08-09T17:58:58.371Z,57175.47
2022-08-09T18:01:26.359Z,57177.56
2022-08-09T18:04:13.044Z,57179.66
2022-08-09T18:06:39.823Z,57192.19
2022-08-09T18:09:16.613Z,57219.31
2022-08-09T18:12:05.708Z,57150.44
2022-08-09T18:14:30.081Z,57167.13
2022-08-09T18:16:56.832Z,57194.25
2022-08-09T18:20:56.589Z,57192.19
2022-08-09T18:22:16.821Z,57158.78
2022-08-09T18:24:44.457Z,57148.34
2022-08-09T18:27:49.286Z,57160.88
2022-08-09T18:30:35.866Z,57196.34
2022-08-09T18:32:54.104Z,57148.34
2022-08-09T18:35:58.649Z,57183.84
2022-08-09T18:38:09.498Z,57156.69
2022-08-09T18:40:38.706Z,57185.91
2022-08-09T18:43:06.083Z,57162.97
2022-08-09T18:46:46.807Z,57190.09
2022-08-09T18:48:20.325Z,57202.63
2022-08-09T18:50:47.069Z,57213.06
2022-08-09T18:53:16.548Z,57198.44
2022-08-09T18:55:56.537Z,57171.31
2022-08-09T18:58:32.172Z,57213.06
2022-08-09T19:01:00.470Z,57196.34
2022-08-09T19:03:27.518Z,57188.00
2022-08-09T19:06:03.661Z,57173.41
2022-08-09T19:08:31.122Z,57179.66
2022-08-09T19:10:57.811Z,57194.25
2022-08-09T19:13:38.379Z,57183.84
2022-08-09T19:16:12.962Z,57196.34
2022-08-09T19:18:44.443Z,57200.53
2022-08-09T19:21:12.827Z,57169.22
2022-08-09T19:24:39.669Z,57196.34
2022-08-09T19:26:31.714Z,57213.06
2022-08-09T19:29:01.486Z,57204.69
2022-08-09T19:31:30.733Z,57213.06
2022-08-09T19:34:21.766Z,57158.78
2022-08-09T19:36:54.938Z,57171.31
2022-08-09T19:39:29.278Z,57208.88
2022-08-09T19:42:15.083Z,57179.66
2022-08-09T19:44:50.732Z,57229.75
2022-08-09T19:47:22.631Z,57192.19
2022-08-09T19:50:05.370Z,57188.00
2022-08-09T19:52:37.336Z,57188.00
2022-08-09T19:55:17.103Z,57188.00
2022-08-09T19:57:46.237Z,57202.63
2022-08-09T20:00:15.803Z,57196.34
2022-08-09T20:04:09.844Z,57196.34
2022-08-09T20:05:45.963Z,57173.41
2022-08-09T20:08:16.037Z,57221.41
2022-08-09T20:10:53.231Z,57225.56
2022-08-09T20:13:20.741Z,57196.34
2022-08-09T20:16:34.847Z,57171.31
2022-08-09T20:18:36.027Z,57202.63
2022-08-09T20:21:02.997Z,57194.25
2022-08-09T20:23:38.784Z,57223.50
2022-08-09T20:26:08.069Z,57217.22
2022-08-09T20:28:49.695Z,57196.34
2022-08-09T20:31:17.372Z,57202.63
2022-08-09T20:33:44.874Z,57217.22
2022-08-09T20:36:12.487Z,57217.22
2022-08-09T20:41:34.647Z,57196.34
2022-08-09T20:44:10.548Z,57198.44
2022-08-09T20:46:44.690Z,57217.22
2022-08-09T20:49:13.519Z,57206.78
2022-08-09T20:51:42.129Z,57177.56
2022-08-09T20:54:16.713Z,57188.00
2022-08-09T20:56:46.752Z,57188.00
2022-08-09T20:59:16.801Z,57215.13
2022-08-09T21:01:50.960Z,57204.69
2022-08-09T21:05:53.041Z,57210.97
2022-08-09T21:07:13.160Z,57213.06
2022-08-09T21:09:56.730Z,57154.59
2022-08-09T21:15:27.465Z,57156.69
2022-08-09T21:18:24.060Z,57206.78
2022-08-09T21:20:54.034Z,57215.13
2022-08-09T21:23:21.651Z,57188.00
2022-08-09T21:26:03.882Z,57217.22
2022-08-09T21:28:36.150Z,57223.50
2022-08-09T21:31:19.340Z,57206.78
2022-08-09T21:33:52.867Z,57202.63
2022-08-09T21:36:28.054Z,57171.31
2022-08-09T21:38:58.580Z,57179.66
2022-08-09T21:42:05.177Z,57221.41
2022-08-09T21:44:33.939Z,57231.84
2022-08-09T21:47:07.863Z,57231.84
2022-08-09T21:49:39.589Z,57227.66
2022-08-09T21:52:16.996Z,57217.22
2022-08-09T21:54:46.289Z,57196.34
2022-08-09T21:57:25.196Z,57179.66
2022-08-09T22:00:17.355Z,57173.41
2022-08-09T22:02:44.490Z,57200.53
2022-08-09T22:05:37.089Z,57181.75
2022-08-09T22:08:13.044Z,57229.75
2022-08-09T22:11:50.437Z,57238.09
2022-08-09T22:13:34.497Z,57169.22
2022-08-09T22:16:04.072Z,57175.47
2022-08-09T22:18:32.702Z,57215.13
2022-08-09T22:20:59.757Z,57217.22
2022-08-09T22:23:27.229Z,57217.22
2022-08-09T22:26:05.977Z,57217.22
2022-08-09T22:28:47.156Z,57233.91
2022-08-09T22:31:21.259Z,57229.75
2022-08-09T22:33:55.718Z,57185.91
2022-08-09T22:36:23.415Z,57196.34
2022-08-09T22:38:50.028Z,57215.13
2022-08-09T22:41:17.002Z,57223.50
2022-08-09T22:44:02.091Z,57223.50
2022-08-09T22:48:16.423Z,57210.97
2022-08-09T22:49:18.618Z,57221.41
2022-08-09T22:51:49.454Z,57244.34
2022-08-09T22:54:21.264Z,57236.00
2022-08-09T22:56:50.872Z,57213.06
2022-08-09T22:59:56.360Z,57223.50
2022-08-09T23:02:09.816Z,57231.84
2022-08-09T23:04:38.382Z,57221.41
2022-08-09T23:08:21.173Z,57190.09
2022-08-09T23:10:10.930Z,57219.31
2022-08-09T23:12:37.802Z,57223.50
2022-08-09T23:15:05.407Z,57258.97
2022-08-09T23:17:32.241Z,57177.56
2022-08-09T23:20:06.276Z,57221.41
2022-08-09T23:22:34.564Z,57175.47
2022-08-09T23:25:06.386Z,57225.56
2022-08-09T23:27:33.653Z,57219.31
2022-08-09T23:30:00.420Z,57208.88
2022-08-09T23:32:27.089Z,57227.66
2022-08-09T23:34:53.745Z,57206.78
2022-08-09T23:37:21.370Z,57196.34
2022-08-09T23:39:49.740Z,57213.06
2022-08-09T23:42:16.592Z,57225.56
2022-08-09T23:44:43.362Z,57215.13
2022-08-09T23:47:10.003Z,57256.88
2022-08-09T23:49:36.628Z,57248.53
2022-08-09T23:52:03.575Z,57242.28
2022-08-09T23:54:30.215Z,57210.97
2022-08-09T23:56:58.208Z,57258.97
2022-08-09T23:59:25.858Z,57208.88
